sensor_id;sensor_type;location;lat;lon;timestamp;pressure;altitude;pressure_sealevel;temperature;humidity
70815;BME280;58428;49.478;10.986;2023-05-11T21:44:47;98247.22;;;11.30;100.00
70815;BME280;58428;49.478;10.986;2023-05-11T21:47:14;98251.16;;;11.32;100.00
70815;BME280;58428;49.478;10.986;2023-05-11T21:49:40;98247.78;;;11.35;100.00
70815;BME280;58428;49.478;10.986;2023-05-11T21:52:07;98248.38;;;11.40;100.00
70815;BME280;58428;49.478;10.986;2023-05-11T21:54:34;98244.69;;;11.45;100.00
70815;BME280;58428;49.478;10.986;2023-05-11T21:56:59;98243.56;;;11.46;100.00
70815;BME280;58428;49.478;10.986;2023-05-11T21:59:24;98249.00;;;11.46;100.00
70815;BME280;58428;49.478;10.986;2023-05-11T22:01:52;98251.13;;;11.52;100.00
70815;BME280;58428;49.478;10.986;2023-05-11T22:04:19;98242.31;;;11.55;100.00
70815;BME280;58428;49.478;10.986;2023-05-11T22:06:44;98250.44;;;11.55;100.00
70815;BME280;58428;49.478;10.986;2023-05-11T22:09:10;98249.78;;;11.58;100.00
70815;BME280;58428;49.478;10.986;2023-05-11T22:11:39;98256.31;;;11.57;100.00
70815;BME280;58428;49.478;10.986;2023-05-11T22:14:06;98253.75;;;11.61;100.00
70815;BME280;58428;49.478;10.986;2023-05-11T22:16:31;98252.84;;;11.57;100.00
70815;BME280;58428;49.478;10.986;2023-05-11T22:18:57;98255.66;;;11.60;100.00
70815;BME280;58428;49.478;10.986;2023-05-11T22:21:22;98257.03;;;11.66;100.00
70815;BME280;58428;49.478;10.986;2023-05-11T22:23:51;98257.16;;;11.70;100.00
70815;BME280;58428;49.478;10.986;2023-05-11T22:26:17;98253.22;;;11.67;100.00
70815;BME280;58428;49.478;10.986;2023-05-11T22:28:42;98259.19;;;11.73;100.00
70815;BME280;58428;49.478;10.986;2023-05-11T22:31:08;98260.00;;;11.73;100.00
70815;BME280;58428;49.478;10.986;2023-05-11T22:33:33;98255.56;;;11.69;100.00
70815;BME280;58428;49.478;10.986;2023-05-11T22:35:58;98260.19;;;11.68;100.00
70815;BME280;58428;49.478;10.986;2023-05-11T22:38:24;98260.88;;;11.65;100.00
70815;BME280;58428;49.478;10.986;2023-05-11T22:40:49;98257.38;;;11.65;100.00
70815;BME280;58428;49.478;10.986;2023-05-11T22:43:15;98259.41;;;11.68;100.00
70815;BME280;58428;49.478;10.986;2023-05-11T22:45:40;98257.94;;;11.70;100.00
70815;BME280;58428;49.478;10.986;2023-05-11T22:48:06;98262.34;;;11.75;100.00
70815;BME280;58428;49.478;10.986;2023-05-11T22:50:31;98257.81;;;11.67;100.00
70815;BME280;58428;49.478;10.986;2023-05-11T22:52:57;98264.06;;;11.67;100.00
70815;BME280;58428;49.478;10.986;2023-05-11T22:55:22;98264.59;;;11.61;100.00
70815;BME280;58428;49.478;10.986;2023-05-11T22:57:48;98266.50;;;11.60;100.00
70815;BME280;58428;49.478;10.986;2023-05-11T23:00:16;98257.03;;;11.66;100.00
70815;BME280;58428;49.478;10.986;2023-05-11T23:02:42;98261.44;;;11.71;100.00
70815;BME280;58428;49.478;10.986;2023-05-11T23:05:07;98258.63;;;11.67;100.00
70815;BME280;58428;49.478;10.986;2023-05-11T23:07:35;98258.72;;;11.59;100.00
70815;BME280;58428;49.478;10.986;2023-05-11T23:10:01;98259.28;;;11.64;100.00
70815;BME280;58428;49.478;10.986;2023-05-11T23:12:31;98253.66;;;11.69;100.00
70815;BME280;58428;49.478;10.986;2023-05-11T23:14:57;98256.91;;;11.63;100.00
70815;BME280;58428;49.478;10.986;2023-05-11T23:17:22;98261.81;;;11.69;100.00
70815;BME280;58428;49.478;10.986;2023-05-11T23:19:48;98256.31;;;11.57;100.00
70815;BME280;58428;49.478;10.986;2023-05-11T23:22:14;98256.31;;;11.57;100.00
70815;BME280;58428;49.478;10.986;2023-05-11T23:24:40;98253.84;;;11.52;100.00
70815;BME280;58428;49.478;10.986;2023-05-11T23:27:05;98261.28;;;11.55;100.00
70815;BME280;58428;49.478;10.986;2023-05-11T23:29:31;98255.09;;;11.55;100.00
70815;BME280;58428;49.478;10.986;2023-05-11T23:31:56;98255.22;;;11.58;100.00
70815;BME280;58428;49.478;10.986;2023-05-11T23:34:21;98256.47;;;11.61;100.00
70815;BME280;58428;49.478;10.986;2023-05-11T23:36:47;98251.03;;;11.61;100.00
70815;BME280;58428;49.478;10.986;2023-05-11T23:39:12;98258.38;;;11.60;100.00
70815;BME280;58428;49.478;10.986;2023-05-11T23:41:38;98252.41;;;11.67;100.00
70815;BME280;58428;49.478;10.986;2023-05-11T23:44:04;98254.66;;;11.65;100.00
70815;BME280;58428;49.478;10.986;2023-05-11T23:46:29;98249.25;;;11.65;100.00
70815;BME280;58428;49.478;10.986;2023-05-11T23:48:57;98241.34;;;11.60;100.00
70815;BME280;58428;49.478;10.986;2023-05-11T23:51:22;98240.06;;;11.57;100.00
70815;BME280;58428;49.478;10.986;2023-05-11T23:53:48;98250.25;;;11.60;100.00
70815;BME280;58428;49.478;10.986;2023-05-11T23:56:15;98251.72;;;11.58;100.00
70815;BME280;58428;49.478;10.986;2023-05-11T23:58:40;98240.06;;;11.57;100.00
